Time;durP1;ratioP1;P1;durP2;ratioP2;P2;SDS_P1;SDS_P2;PMS_P1;PMS_P2;Temp;Humidity;BMP_temperature;BMP_pressure;BME280_temperature;BME280_humidity;BME280_pressure;Samples;Min_cycle;Max_cycle;Signal;HPM_P1;HPM_P2
2022/05/03 00:01:48;;;;;;;5.50;4.30;;;9.90;99.90;;;;;;5097074;28;20019;-82
2022/05/03 00:04:23;;;;;;;5.63;4.00;;;9.90;99.90;;;;;;5097012;28;20024;-82
2022/05/03 00:07:13;;;;;;;6.55;4.47;;;9.80;99.90;;;;;;5096911;28;20042;-82
2022/05/03 00:10:02;;;;;;;4.67;4.07;;;9.80;99.90;;;;;;5096982;28;20479;-82
2022/05/03 00:12:38;;;;;;;4.80;4.30;;;9.80;99.90;;;;;;5096688;28;20106;-82
2022/05/03 00:15:05;;;;;;;7.47;4.90;;;9.80;99.90;;;;;;5096569;28;20034;-82
2022/05/03 00:17:32;;;;;;;5.00;4.20;;;9.80;99.90;;;;;;5095455;28;20020;-82
2022/05/03 00:19:58;;;;;;;5.07;4.10;;;9.80;99.90;;;;;;5095108;28;20051;-82
2022/05/03 00:22:24;;;;;;;5.63;4.23;;;9.80;99.90;;;;;;5095734;28;20028;-82
2022/05/03 00:24:54;;;;;;;7.83;4.10;;;9.80;99.90;;;;;;5096511;28;20032;-81
2022/05/03 00:27:24;;;;;;;6.10;4.43;;;9.80;99.90;;;;;;5096647;28;20024;-80
2022/05/03 00:29:55;;;;;;;5.57;4.37;;;9.80;99.90;;;;;;5096440;28;20059;-80
2022/05/03 00:32:22;;;;;;;6.57;4.50;;;9.80;99.90;;;;;;5096472;28;20103;-82
2022/05/03 00:34:49;;;;;;;5.87;4.60;;;9.80;99.90;;;;;;5096192;28;20128;-82
2022/05/03 00:37:15;;;;;;;5.67;4.53;;;9.80;99.90;;;;;;5096525;28;20073;-81
2022/05/03 00:39:41;;;;;;;7.00;4.73;;;9.80;99.90;;;;;;5096253;28;20021;-81
2022/05/03 00:42:20;;;;;;;7.77;4.63;;;9.80;99.90;;;;;;5096138;28;20030;-82
2022/05/03 00:45:09;;;;;;;6.03;4.83;;;9.70;99.90;;;;;;5095261;28;20568;-82
2022/05/03 00:47:56;;;;;;;7.17;5.10;;;9.70;99.90;;;;;;5094679;28;20035;-82
2022/05/03 00:50:32;;;;;;;7.23;4.93;;;9.70;99.90;;;;;;5095891;28;20031;-81
2022/05/03 00:53:09;;;;;;;5.20;4.70;;;9.60;99.90;;;;;;5095873;28;20036;-81
2022/05/03 00:55:47;;;;;;;7.50;5.53;;;9.60;99.90;;;;;;5094340;28;20024;-82
2022/05/03 00:58:27;;;;;;;5.60;4.70;;;9.50;99.90;;;;;;5095579;28;20053;-82
2022/05/03 01:01:03;;;;;;;6.37;5.30;;;9.40;99.90;;;;;;5094769;28;20051;-81
2022/05/03 01:03:40;;;;;;;9.77;5.37;;;9.40;99.90;;;;;;5095773;28;20024;-82
2022/05/03 01:06:31;;;;;;;6.37;5.13;;;9.40;99.90;;;;;;5095781;28;20103;-81
2022/05/03 01:08:59;;;;;;;7.37;5.23;;;9.30;99.90;;;;;;5094340;28;20389;-82
2022/05/03 01:11:31;;;;;;;6.53;5.20;;;9.20;99.90;;;;;;5095584;28;20085;-81
2022/05/03 01:14:25;;;;;;;6.47;5.20;;;9.10;99.90;;;;;;5095411;28;20024;-82
2022/05/03 01:17:14;;;;;;;6.73;4.87;;;9.10;99.90;;;;;;5039996;28;20427;-82
2022/05/03 01:20:04;;;;;;;6.40;5.47;;;9.00;99.90;;;;;;5092663;28;20048;-88
2022/05/03 01:23:03;;;;;;;7.43;5.63;;;9.00;99.90;;;;;;5074613;28;20116;-88
2022/05/03 01:25:44;;;;;;;8.60;5.90;;;8.90;99.90;;;;;;5074455;28;20036;-88
2022/05/03 01:28:29;;;;;;;6.87;5.50;;;8.90;99.90;;;;;;5056256;28;20120;-88
2022/05/03 01:31:04;;;;;;;6.63;5.40;;;8.80;99.90;;;;;;5056529;28;20431;-88
2022/05/03 01:33:38;;;;;;;6.30;5.05;;;8.80;99.90;;;;;;5074425;28;20103;-87
2022/05/03 01:36:07;;;;;;;7.13;4.83;;;8.70;99.90;;;;;;5074460;28;20036;-88
2022/05/03 01:39:04;;;;;;;8.13;5.33;;;8.60;99.90;;;;;;5056434;28;20058;-88
2022/05/03 01:41:45;;;;;;;6.67;5.17;;;8.60;99.90;;;;;;5074247;28;20119;-88
2022/05/03 01:44:37;;;;;;;7.17;5.13;;;8.50;99.90;;;;;;5074260;28;20064;-87
2022/05/03 01:47:24;;;;;;;7.20;5.27;;;8.40;99.90;;;;;;5074075;28;20043;-88
2022/05/03 01:50:19;;;;;;;6.30;4.70;;;8.40;99.90;;;;;;5073966;28;20503;-88
2022/05/03 01:53:00;;;;;;;5.72;5.05;;;8.40;99.90;;;;;;5072971;28;20032;-88
2022/05/03 01:55:55;;;;;;;7.17;5.20;;;8.30;99.90;;;;;;5072422;28;20039;-88
2022/05/03 01:58:34;;;;;;;6.30;5.38;;;8.30;99.90;;;;;;5038909;28;20059;-88
2022/05/03 02:01:21;;;;;;;6.50;5.20;;;8.30;99.90;;;;;;5081868;28;20031;-88
2022/05/03 02:03:51;;;;;;;6.67;5.60;;;8.20;99.90;;;;;;5092920;28;20028;-88
2022/05/03 02:06:29;;;;;;;5.50;4.87;;;8.20;99.90;;;;;;5094176;28;20028;-88
2022/05/03 02:09:04;;;;;;;7.47;5.53;;;8.20;99.90;;;;;;5092590;28;20437;-88
2022/05/03 02:11:36;;;;;;;6.28;5.20;;;8.10;99.90;;;;;;5093775;28;20024;-88
2022/05/03 02:17:26;;;;;;;7.20;5.23;;;8.00;99.90;;;;;;5094235;28;20085;-88
2022/05/03 02:19:58;;;;;;;6.50;5.53;;;8.10;99.90;;;;;;5093327;28;20167;-88
2022/05/03 02:22:35;;;;;;;6.77;5.57;;;8.00;99.90;;;;;;5093908;28;20436;-88
2022/05/03 02:25:23;;;;;;;7.07;5.77;;;8.00;99.90;;;;;;5093621;28;20028;-88
2022/05/03 02:27:58;;;;;;;7.20;5.67;;;8.00;99.90;;;;;;5093498;28;20074;-87
2022/05/03 02:30:26;;;;;;;7.13;5.90;;;8.00;99.90;;;;;;5093696;28;20047;-87
2022/05/03 02:33:09;;;;;;;6.30;5.70;;;7.90;99.90;;;;;;5093672;28;20046;-88
2022/05/03 02:35:35;;;;;;;7.33;5.33;;;7.90;99.90;;;;;;5093657;28;20036;-88
2022/05/03 02:38:06;;;;;;;7.87;6.50;;;7.90;99.90;;;;;;5092429;28;20480;-87
2022/05/03 02:40:33;;;;;;;6.83;5.70;;;7.90;99.90;;;;;;5093529;28;20032;-88
2022/05/03 02:42:59;;;;;;;6.93;5.83;;;7.90;99.90;;;;;;5093795;28;20381;-88
2022/05/03 02:45:25;;;;;;;7.33;6.23;;;7.80;99.90;;;;;;5093643;28;20030;-87
2022/05/03 02:48:17;;;;;;;7.33;6.40;;;7.80;99.90;;;;;;5092422;28;20119;-88
2022/05/03 02:50:55;;;;;;;8.33;6.70;;;7.80;99.90;;;;;;5092129;28;20028;-88
2022/05/03 02:53:39;;;;;;;9.17;6.60;;;7.80;99.90;;;;;;5091925;28;20028;-88
2022/05/03 02:56:30;;;;;;;7.77;6.70;;;7.80;99.90;;;;;;5093495;28;20436;-88
2022/05/03 02:59:05;;;;;;;8.30;6.70;;;7.80;99.90;;;;;;5064321;28;20553;-88
2022/05/03 03:01:56;;;;;;;8.45;6.65;;;7.80;99.90;;;;;;5075570;28;20076;-87
2022/05/03 03:04:33;;;;;;;8.60;7.10;;;7.80;99.90;;;;;;5093551;28;20141;-87
2022/05/03 03:06:59;;;;;;;7.73;6.93;;;7.80;99.90;;;;;;5093632;28;20233;-87
2022/05/03 03:09:40;;;;;;;6.93;6.10;;;7.80;99.90;;;;;;5093549;28;20028;-87
2022/05/03 03:12:12;;;;;;;8.03;6.57;;;7.80;99.90;;;;;;5093677;28;20027;-88
2022/05/03 03:14:46;;;;;;;7.90;6.73;;;7.80;99.90;;;;;;5093544;28;20039;-88
2022/05/03 03:17:19;;;;;;;7.85;7.03;;;7.70;99.90;;;;;;5093457;28;20043;-87
2022/05/03 03:20:04;;;;;;;7.40;6.70;;;7.70;99.90;;;;;;5089486;28;20044;-88
2022/05/03 03:22:38;;;;;;;7.80;6.60;;;7.70;99.90;;;;;;5081595;28;20020;-88
2022/05/03 03:25:04;;;;;;;8.13;6.70;;;7.60;99.90;;;;;;5096913;28;20031;-88
2022/05/03 03:27:31;;;;;;;7.13;6.43;;;7.70;99.90;;;;;;5097572;28;20025;-87
2022/05/03 03:29:58;;;;;;;8.50;6.83;;;7.70;99.90;;;;;;5097033;28;20349;-88
2022/05/03 03:32:26;;;;;;;7.63;6.80;;;7.60;99.90;;;;;;5079183;28;20024;-87
2022/05/03 03:34:57;;;;;;;8.17;7.03;;;7.60;99.90;;;;;;5078853;28;20035;-88
2022/05/03 03:37:25;;;;;;;8.23;6.67;;;7.60;99.90;;;;;;5078825;28;20361;-88
2022/05/03 03:39:50;;;;;;;8.57;6.43;;;7.60;99.90;;;;;;5097231;28;20020;-88
2022/05/03 03:42:16;;;;;;;8.03;6.63;;;7.60;99.90;;;;;;5097258;28;20023;-88
2022/05/03 03:44:42;;;;;;;12.03;6.57;;;7.60;99.90;;;;;;5097114;28;20111;-88
2022/05/03 03:47:09;;;;;;;8.43;6.60;;;7.60;99.90;;;;;;5078879;28;20548;-88
2022/05/03 03:49:35;;;;;;;10.60;6.70;;;7.60;99.90;;;;;;5096748;28;20099;-87
2022/05/03 03:52:01;;;;;;;9.10;6.37;;;7.60;99.90;;;;;;5096925;28;20058;-88
2022/05/03 03:54:28;;;;;;;8.77;6.10;;;7.70;99.90;;;;;;5096646;28;20457;-87
2022/05/03 03:56:55;;;;;;;12.10;6.43;;;7.60;99.90;;;;;;5078581;28;20419;-88
2022/05/03 03:59:21;;;;;;;7.70;5.80;;;7.70;99.90;;;;;;5096816;28;20035;-88
2022/05/03 04:01:50;;;;;;;6.83;5.70;;;7.70;99.90;;;;;;5096407;28;20040;-87
2022/05/03 04:04:23;;;;;;;8.40;5.43;;;7.70;99.90;;;;;;5096604;28;20085;-87
2022/05/03 04:06:48;;;;;;;6.80;5.67;;;7.70;99.90;;;;;;5096482;28;20020;-88
2022/05/03 04:09:14;;;;;;;7.00;6.30;;;7.70;99.90;;;;;;5096595;28;20410;-87
2022/05/03 04:11:47;;;;;;;7.47;5.60;;;7.70;99.90;;;;;;5078098;28;20024;-88
2022/05/03 04:14:13;;;;;;;8.03;6.03;;;7.70;99.90;;;;;;5096224;28;20380;-88
2022/05/03 04:16:40;;;;;;;8.27;6.13;;;7.70;99.90;;;;;;5096245;28;20020;-88
2022/05/03 04:19:06;;;;;;;7.83;6.03;;;7.70;99.90;;;;;;5090116;28;20048;-88
2022/05/03 04:21:31;;;;;;;9.60;6.20;;;7.70;99.90;;;;;;5068326;28;20028;-88
2022/05/03 04:23:57;;;;;;;11.67;7.33;;;7.70;99.90;;;;;;5092591;28;20527;-78
2022/05/03 04:26:25;;;;;;;8.40;5.37;;;7.70;99.90;;;;;;5078432;28;20122;-79
2022/05/03 04:28:56;;;;;;;10.43;6.20;;;7.70;99.90;;;;;;5078183;28;20027;-78
2022/05/03 04:31:27;;;;;;;7.00;6.30;;;7.70;99.90;;;;;;5096479;28;20150;-78
2022/05/03 04:33:56;;;;;;;7.37;5.90;;;7.70;99.90;;;;;;5096509;28;20487;-87
2022/05/03 04:36:22;;;;;;;8.73;6.43;;;7.70;99.90;;;;;;5091972;28;20020;-88
2022/05/03 04:38:49;;;;;;;8.80;5.90;;;7.80;99.90;;;;;;5070572;28;20373;-87
2022/05/03 04:41:15;;;;;;;6.10;5.50;;;7.80;99.90;;;;;;5088078;28;20012;-88
2022/05/03 04:43:41;;;;;;;6.80;5.63;;;7.80;99.90;;;;;;5086281;28;20066;-87
2022/05/03 04:46:06;;;;;;;8.20;6.20;;;7.90;99.90;;;;;;5072338;28;20024;-87
2022/05/03 04:48:32;;;;;;;6.87;5.90;;;7.90;99.90;;;;;;5078062;28;20464;-87
2022/05/03 04:50:57;;;;;;;7.87;5.23;;;8.00;99.90;;;;;;5092869;28;20054;-87
2022/05/03 04:53:23;;;;;;;6.37;5.30;;;8.00;99.90;;;;;;5071437;28;20020;-87
2022/05/03 04:55:49;;;;;;;6.33;4.73;;;8.10;99.90;;;;;;5094149;28;20028;-87
2022/05/03 04:58:15;;;;;;;9.40;5.20;;;8.10;99.90;;;;;;5090848;28;20020;-87
2022/05/03 05:00:40;;;;;;;10.00;5.23;;;8.10;99.90;;;;;;5091640;28;20026;-87
2022/05/03 05:03:06;;;;;;;8.53;5.60;;;8.20;99.90;;;;;;5089622;28;20419;-86
2022/05/03 05:05:32;;;;;;;7.17;5.03;;;8.30;99.90;;;;;;5072576;28;20028;-81
2022/05/03 05:08:05;;;;;;;6.23;5.30;;;8.30;99.90;;;;;;5087538;28;20510;-87
2022/05/03 05:10:32;;;;;;;7.10;5.13;;;8.30;99.90;;;;;;5090898;28;20024;-87
2022/05/03 05:13:00;;;;;;;7.57;5.57;;;8.40;99.90;;;;;;5071039;28;20028;-87
2022/05/03 05:15:26;;;;;;;7.13;5.23;;;8.40;99.90;;;;;;5075050;28;20029;-87
2022/05/03 05:17:56;;;;;;;9.23;5.30;;;8.50;99.90;;;;;;5074927;28;20021;-87
2022/05/03 05:20:21;;;;;;;6.63;5.03;;;8.50;99.90;;;;;;5089684;28;20044;-88
2022/05/03 05:22:47;;;;;;;5.00;4.50;;;8.50;99.90;;;;;;5074351;28;20020;-87
2022/05/03 05:25:13;;;;;;;7.53;4.77;;;8.60;99.90;;;;;;5077640;28;20230;-87
2022/05/03 05:27:39;;;;;;;5.77;4.07;;;8.60;99.90;;;;;;5090519;28;20022;-86
2022/05/03 05:30:06;;;;;;;4.80;3.90;;;8.70;99.90;;;;;;5075731;28;20428;-84
2022/05/03 05:32:35;;;;;;;7.13;4.57;;;8.80;99.90;;;;;;5092118;28;20035;-82
2022/05/03 05:35:01;;;;;;;7.73;4.90;;;8.90;99.90;;;;;;5092332;28;20028;-82
2022/05/03 05:37:27;;;;;;;5.70;4.57;;;8.90;99.90;;;;;;5092459;28;20023;-74
2022/05/03 05:39:53;;;;;;;6.77;4.50;;;9.00;99.90;;;;;;5093184;28;20675;-83
2022/05/03 05:42:18;;;;;;;6.77;4.83;;;9.10;99.90;;;;;;5092667;28;20028;-85
2022/05/03 05:44:46;;;;;;;5.47;3.77;;;9.10;99.90;;;;;;5092967;28;20035;-83
2022/05/03 05:47:13;;;;;;;7.17;3.93;;;9.20;99.90;;;;;;5091360;28;20028;-83
2022/05/03 05:49:39;;;;;;;6.70;4.40;;;9.30;99.90;;;;;;5068823;28;20309;-83
2022/05/03 05:54:49;;;;;;;4.67;3.73;;;9.50;99.90;;;;;;5092341;28;20058;-84
2022/05/03 05:57:15;;;;;;;4.30;3.43;;;9.50;99.90;;;;;;5092294;28;20026;-84
2022/05/03 05:59:41;;;;;;;7.27;3.30;;;9.60;99.90;;;;;;5092796;28;20028;-84
2022/05/03 06:02:07;;;;;;;3.67;3.37;;;9.70;99.90;;;;;;5092186;28;20380;-84
2022/05/03 06:04:33;;;;;;;6.40;3.90;;;9.70;99.90;;;;;;5091770;28;20028;-83
2022/05/03 06:06:59;;;;;;;5.80;3.67;;;9.80;99.90;;;;;;5088172;28;20503;-83
2022/05/03 06:09:27;;;;;;;3.87;3.47;;;9.80;99.90;;;;;;5087033;28;20024;-84
2022/05/03 06:11:52;;;;;;;5.73;3.50;;;9.90;99.90;;;;;;5069175;28;20024;-84
2022/05/03 06:14:18;;;;;;;5.67;3.63;;;9.90;99.90;;;;;;5086099;28;20260;-83
2022/05/03 06:16:48;;;;;;;4.83;3.57;;;10.00;99.90;;;;;;5087020;28;20039;-83
2022/05/03 06:19:13;;;;;;;4.82;3.50;;;10.10;99.90;;;;;;5087337;28;20712;-83
2022/05/03 06:21:39;;;;;;;4.07;3.43;;;10.10;99.90;;;;;;5085895;28;20028;-83
2022/05/03 06:24:06;;;;;;;5.68;3.55;;;10.20;99.90;;;;;;5086891;28;20407;-84
2022/05/03 06:26:32;;;;;;;5.57;3.25;;;10.30;99.90;;;;;;5085595;28;20138;-84
2022/05/03 06:28:57;;;;;;;4.03;3.10;;;10.40;99.90;;;;;;5069345;28;20385;-83
2022/05/03 06:31:24;;;;;;;6.65;3.47;;;10.50;99.90;;;;;;5086003;28;20492;-84
2022/05/03 06:33:49;;;;;;;4.47;3.25;;;10.60;99.90;;;;;;5087491;28;20131;-84
2022/05/03 06:36:15;;;;;;;3.70;3.15;;;10.60;99.90;;;;;;5083929;28;20362;-83
2022/05/03 06:38:41;;;;;;;4.25;3.55;;;10.60;99.90;;;;;;5085063;28;20036;-84
2022/05/03 06:41:08;;;;;;;4.32;3.40;;;10.70;99.90;;;;;;5086860;28;20035;-83
2022/05/03 06:43:34;;;;;;;4.70;3.33;;;10.70;99.90;;;;;;5086591;28;20503;-84
2022/05/03 06:46:00;;;;;;;5.75;3.40;;;10.70;99.90;;;;;;5085309;28;20028;-84
2022/05/03 06:48:25;;;;;;;15.07;4.00;;;10.80;99.90;;;;;;5085659;28;20024;-84
2022/05/03 06:50:56;;;;;;;5.43;3.78;;;10.90;99.90;;;;;;5066040;28;20024;-84
2022/05/03 06:53:45;;;;;;;4.47;3.40;;;10.90;99.90;;;;;;5084752;28;20021;-84
2022/05/03 06:56:18;;;;;;;4.30;3.40;;;11.00;99.90;;;;;;5082898;28;20551;-83
2022/05/03 06:58:43;;;;;;;4.22;3.78;;;11.10;99.90;;;;;;5084175;28;20125;-83
2022/05/03 07:01:14;;;;;;;5.95;3.47;;;11.20;99.90;;;;;;5082433;28;20459;-84
2022/05/03 07:03:41;;;;;;;5.43;3.72;;;11.20;99.90;;;;;;5088125;28;20105;-80
2022/05/03 07:06:07;;;;;;;6.15;3.60;;;11.30;99.90;;;;;;5090036;28;20028;-84
2022/05/03 07:08:34;;;;;;;6.15;4.00;;;11.40;99.90;;;;;;5087312;28;20111;-84
2022/05/03 07:11:00;;;;;;;6.28;3.72;;;11.50;99.90;;;;;;5087947;28;20785;-79
2022/05/03 07:13:26;;;;;;;5.70;3.40;;;11.60;99.90;;;;;;5090046;28;20058;-79
2022/05/03 07:15:52;;;;;;;5.53;3.70;;;11.70;99.90;;;;;;5091981;28;20029;-79
2022/05/03 07:23:46;;;;;;;5.75;3.97;;;11.90;99.90;;;;;;5086998;28;20124;-84
2022/05/03 07:26:12;;;;;;;7.05;4.63;;;12.00;99.90;;;;;;5085206;28;20161;-84
2022/05/03 07:28:38;;;;;;;5.28;3.63;;;12.10;99.90;;;;;;5087737;28;20035;-84
2022/05/03 07:31:04;;;;;;;6.20;3.95;;;12.20;99.90;;;;;;5086551;28;20377;-84
2022/05/03 07:33:30;;;;;;;5.93;3.00;;;12.30;99.90;;;;;;5067916;28;20868;-84
2022/05/03 07:35:55;;;;;;;8.10;3.55;;;12.50;99.90;;;;;;5084844;28;20097;-84
2022/05/03 07:38:21;;;;;;;7.28;3.47;;;12.60;99.90;;;;;;5087084;28;20077;-84
2022/05/03 07:40:46;;;;;;;5.88;3.25;;;12.80;99.90;;;;;;5085929;28;20387;-84
2022/05/03 07:43:12;;;;;;;5.13;3.25;;;12.90;99.90;;;;;;5087487;28;20028;-84
2022/05/03 07:45:38;;;;;;;6.50;3.58;;;13.10;99.90;;;;;;5081895;28;20032;-84
2022/05/03 07:48:04;;;;;;;6.03;3.70;;;13.20;99.90;;;;;;5086199;28;20040;-84
2022/05/03 07:50:30;;;;;;;3.88;3.42;;;13.30;99.90;;;;;;5086901;28;20044;-84
2022/05/03 07:52:56;;;;;;;4.43;3.60;;;13.50;99.90;;;;;;5085699;28;20085;-85
2022/05/03 07:55:21;;;;;;;6.03;3.55;;;13.60;99.90;;;;;;5083355;28;20044;-84
2022/05/03 07:57:47;;;;;;;3.42;2.83;;;13.70;99.90;;;;;;5068060;28;20024;-84
2022/05/03 08:00:13;;;;;;;3.75;3.10;;;13.80;99.90;;;;;;5086655;28;20040;-84
2022/05/03 08:02:38;;;;;;;4.32;2.75;;;13.80;99.90;;;;;;5086380;28;20089;-84
2022/05/03 08:05:04;;;;;;;5.43;3.42;;;13.90;99.90;;;;;;5085662;28;20032;-84
2022/05/03 08:07:30;;;;;;;6.25;2.95;;;14.00;99.90;;;;;;5086308;28;20035;-79
2022/05/03 08:09:55;;;;;;;3.47;2.88;;;14.10;99.90;;;;;;5095488;28;20061;-79
2022/05/03 08:12:24;;;;;;;3.90;3.10;;;14.30;99.90;;;;;;5098678;28;20028;-79
2022/05/03 08:14:53;;;;;;;5.05;2.75;;;14.30;99.90;;;;;;5095770;28;20056;-79
2022/05/03 08:17:19;;;;;;;4.95;2.88;;;14.40;99.90;;;;;;5096437;28;20078;-79
2022/05/03 08:19:47;;;;;;;3.95;2.65;;;14.50;99.90;;;;;;5098040;28;20150;-79
2022/05/03 08:22:17;;;;;;;6.85;3.15;;;14.70;99.90;;;;;;5097709;28;20016;-79
2022/05/03 08:24:45;;;;;;;3.35;2.72;;;14.70;99.90;;;;;;5078422;28;20107;-79
2022/05/03 08:27:15;;;;;;;4.78;2.38;;;14.80;99.90;;;;;;5095911;28;20020;-79
2022/05/03 08:29:48;;;;;;;3.45;2.20;;;14.90;99.90;;;;;;5095095;28;20023;-79
2022/05/03 08:32:17;;;;;;;5.80;3.33;;;14.90;99.90;;;;;;5096313;28;20028;-79
2022/05/03 08:34:42;;;;;;;6.50;3.50;;;15.00;99.90;;;;;;5096301;28;20070;-79
2022/05/03 08:42:36;;;;;;;9.45;4.13;;;15.00;99.90;;;;;;5095968;28;20112;-78
2022/05/03 08:45:01;;;;;;;6.43;3.50;;;15.00;99.90;;;;;;5074552;28;20102;-87
2022/05/03 08:47:28;;;;;;;4.57;3.80;;;15.10;99.90;;;;;;5095262;28;20098;-86
2022/05/03 08:49:53;;;;;;;6.10;4.60;;;15.20;99.90;;;;;;5095582;28;20090;-86
2022/05/03 08:52:21;;;;;;;6.20;4.43;;;15.20;99.90;;;;;;5095729;28;20052;-86
2022/05/03 08:54:48;;;;;;;5.95;4.88;;;15.20;99.90;;;;;;5094071;28;20059;-86
2022/05/03 08:57:14;;;;;;;6.88;5.78;;;15.30;99.90;;;;;;5078729;28;20392;-86
2022/05/03 08:59:43;;;;;;;5.82;5.10;;;15.40;99.90;;;;;;5075751;28;20087;-78
2022/05/03 09:02:10;;;;;;;6.28;5.68;;;15.50;99.90;;;;;;5075983;28;20461;-79
2022/05/03 09:04:35;;;;;;;6.05;4.78;;;15.60;99.90;;;;;;5088982;28;20020;-79
2022/05/03 09:07:16;;;;;;;5.93;4.53;;;15.60;99.90;;;;;;5096058;28;20073;-79
2022/05/03 09:09:41;;;;;;;6.85;5.20;;;15.70;99.90;;;;;;5094344;28;20464;-79
2022/05/03 09:12:30;;;;;;;7.45;4.90;;;15.90;99.90;;;;;;5082632;28;20093;-79
2022/05/03 09:14:58;;;;;;;6.53;5.22;;;16.10;99.90;;;;;;5094759;28;20020;-79
2022/05/03 09:17:39;;;;;;;5.57;4.60;;;16.20;99.90;;;;;;5094463;28;20020;-79
2022/05/03 09:25:48;;;;;;;4.82;4.20;;;16.80;99.90;;;;;;5094692;28;20566;-84
2022/05/03 09:28:14;;;;;;;6.38;4.88;;;17.30;99.90;;;;;;5094146;28;20056;-84
2022/05/03 09:30:51;;;;;;;6.57;4.60;;;17.60;99.90;;;;;;5094175;28;20032;-84
2022/05/03 09:33:19;;;;;;;9.02;5.75;;;17.80;99.90;;;;;;5092365;28;20831;-84
2022/05/03 09:35:45;;;;;;;6.95;5.32;;;18.00;99.90;;;;;;5082110;28;20034;-83
2022/05/03 09:38:11;;;;;;;6.53;4.90;;;18.10;99.90;;;;;;5074536;28;20065;-84
2022/05/03 09:40:44;;;;;;;6.32;4.53;;;18.50;99.90;;;;;;5074877;28;20031;-84
2022/05/03 09:43:10;;;;;;;5.45;4.95;;;18.70;99.90;;;;;;5092774;28;20031;-84
2022/05/03 09:45:36;;;;;;;6.53;5.50;;;18.80;99.90;;;;;;5093190;28;20028;-84
2022/05/03 09:48:02;;;;;;;9.10;6.10;;;19.00;99.90;;;;;;5091474;28;20024;-84
2022/05/03 09:50:37;;;;;;;6.55;5.25;;;19.20;99.90;;;;;;5078005;28;20024;-84
2022/05/03 09:53:09;;;;;;;7.47;5.28;;;19.30;99.90;;;;;;5093408;28;20097;-84
2022/05/03 09:55:39;;;;;;;10.10;5.70;;;19.40;99.90;;;;;;5092560;28;20028;-84
2022/05/03 09:58:06;;;;;;;7.32;5.22;;;19.70;99.90;;;;;;5092901;28;20052;-84
2022/05/03 10:00:36;;;;;;;5.60;4.50;;;19.70;99.90;;;;;;5093025;28;20028;-84
2022/05/03 10:03:03;;;;;;;6.28;4.82;;;19.70;99.90;;;;;;5092559;28;20095;-84
2022/05/03 10:05:30;;;;;;;5.07;4.57;;;19.90;99.90;;;;;;5092357;28;20032;-84
2022/05/03 10:07:59;;;;;;;6.35;4.10;;;19.90;99.90;;;;;;5093823;28;20032;-86
2022/05/03 10:10:27;;;;;;;6.47;4.75;;;19.80;99.90;;;;;;5083312;28;20027;-86
2022/05/03 10:12:56;;;;;;;6.97;4.13;;;19.60;99.90;;;;;;5075354;28;20082;-86
2022/05/03 10:21:15;;;;;;;5.35;4.55;;;18.80;99.90;;;;;;5088361;28;20136;-84
2022/05/03 10:24:01;;;;;;;4.70;3.92;;;18.70;99.90;;;;;;5069129;28;20619;-84
2022/05/03 10:26:53;;;;;;;6.40;4.15;;;18.80;99.90;;;;;;5081719;28;20024;-84
2022/05/03 10:29:32;;;;;;;4.13;3.65;;;19.30;99.90;;;;;;5091192;28;20031;-84
2022/05/03 10:32:14;;;;;;;4.90;3.92;;;19.50;99.90;;;;;;5091180;28;20020;-84
2022/05/03 10:34:40;;;;;;;5.75;4.30;;;19.30;99.90;;;;;;5091353;28;20499;-85
2022/05/03 10:37:10;;;;;;;7.20;4.75;;;19.20;99.90;;;;;;5092273;28;20036;-79
2022/05/03 10:39:46;;;;;;;5.60;4.40;;;19.10;99.90;;;;;;5090820;28;20103;-79
2022/05/03 10:42:13;;;;;;;6.22;4.63;;;19.00;99.90;;;;;;5082934;28;20024;-78
2022/05/03 10:44:53;;;;;;;7.30;4.55;;;18.90;99.90;;;;;;5092044;28;20232;-79
2022/05/03 10:47:41;;;;;;;5.10;3.50;;;18.80;99.90;;;;;;5092349;28;20058;-80
2022/05/03 10:50:12;;;;;;;4.65;4.20;;;18.70;99.90;;;;;;5073784;28;20024;-80
2022/05/03 10:52:42;;;;;;;4.80;4.22;;;18.80;99.90;;;;;;5091617;28;20024;-79
2022/05/03 10:55:09;;;;;;;4.78;4.10;;;19.10;99.90;;;;;;5091640;28;20032;-79
2022/05/03 10:58:12;;;;;;;6.88;4.55;;;19.50;99.90;;;;;;5089261;28;20099;-79
2022/05/03 11:00:59;;;;;;;5.40;4.90;;;20.00;99.90;;;;;;5090501;28;20028;-86
2022/05/03 11:03:25;;;;;;;6.68;5.60;;;20.30;99.90;;;;;;5092259;28;20085;-78
2022/05/03 11:06:17;;;;;;;6.72;5.60;;;20.50;99.90;;;;;;5091136;28;20020;-79
2022/05/03 11:11:44;;;;;;;7.50;6.22;;;20.00;99.90;;;;;;5091610;28;20834;-85
2022/05/03 11:14:24;;;;;;;12.23;7.05;;;19.70;99.90;;;;;;5089807;28;20036;-85
2022/05/03 11:16:58;;;;;;;9.25;6.97;;;19.30;99.90;;;;;;5084278;28;20032;-85
2022/05/03 11:19:24;;;;;;;9.05;7.20;;;18.90;99.90;;;;;;5085525;28;20353;-85
2022/05/03 11:21:51;;;;;;;8.65;7.15;;;18.50;99.90;;;;;;5086880;28;20025;-84
2022/05/03 11:24:20;;;;;;;7.72;6.30;;;18.30;99.90;;;;;;5088624;28;20043;-85
2022/05/03 11:26:52;;;;;;;8.60;6.65;;;18.10;99.90;;;;;;5087505;28;20031;-85
2022/05/03 11:29:18;;;;;;;9.02;6.68;;;17.90;99.90;;;;;;5075922;28;20036;-83
2022/05/03 11:31:51;;;;;;;9.60;7.13;;;17.90;99.90;;;;;;5068099;28;20508;-83
2022/05/03 11:34:18;;;;;;;8.18;7.18;;;17.80;99.90;;;;;;5085275;28;20024;-83
2022/05/03 11:36:47;;;;;;;8.68;7.15;;;17.80;99.90;;;;;;5084901;28;20028;-84
2022/05/03 11:39:14;;;;;;;7.70;6.90;;;17.70;99.90;;;;;;5086718;28;20030;-84
2022/05/03 11:41:42;;;;;;;7.30;6.18;;;17.80;99.90;;;;;;5085034;28;20039;-84
2022/05/03 11:44:07;;;;;;;8.25;6.53;;;17.90;99.90;;;;;;5080375;28;20101;-84
2022/05/03 11:46:33;;;;;;;6.88;6.18;;;18.20;99.90;;;;;;5089625;28;20128;-84
2022/05/03 11:49:02;;;;;;;9.60;8.00;;;18.80;99.90;;;;;;5092075;28;20032;-84
2022/05/03 11:57:10;;;;;;;8.25;6.25;;;20.50;99.90;;;;;;5089438;28;20061;-84
2022/05/03 11:59:36;;;;;;;7.55;6.80;;;20.90;99.90;;;;;;5089693;28;20048;-84
2022/05/03 12:02:20;;;;;;;9.07;6.18;;;21.30;99.90;;;;;;5087560;28;20028;-85
2022/05/03 12:05:02;;;;;;;7.30;5.53;;;21.70;99.90;;;;;;5088114;28;20515;-84
2022/05/03 12:07:29;;;;;;;5.78;4.40;;;22.00;99.90;;;;;;5088016;28;20090;-85
2022/05/03 12:09:55;;;;;;;5.30;4.80;;;22.50;99.90;;;;;;5087668;28;20107;-85
2022/05/03 12:12:45;;;;;;;5.50;4.60;;;22.20;99.90;;;;;;5084191;28;20028;-84
2022/05/03 12:15:15;;;;;;;7.13;6.43;;;22.10;99.90;;;;;;5085756;28;20054;-85
2022/05/03 12:18:02;;;;;;;7.63;5.65;;;21.70;99.90;;;;;;5087437;28;20036;-85
2022/05/03 12:20:51;;;;;;;7.72;4.70;;;22.10;99.90;;;;;;5086915;28;20506;-85
2022/05/03 12:23:19;;;;;;;8.30;5.57;;;22.50;99.90;;;;;;5071747;28;20055;-85
2022/05/03 12:25:48;;;;;;;6.65;5.30;;;22.70;99.90;;;;;;5089387;28;20101;-85
2022/05/03 12:28:14;;;;;;;5.25;4.68;;;22.70;99.90;;;;;;5087896;28;20053;-85
2022/05/03 12:30:40;;;;;;;6.72;5.05;;;22.70;99.90;;;;;;5089239;28;20028;-85
2022/05/03 12:33:08;;;;;;;6.45;5.43;;;22.30;99.90;;;;;;5085628;28;20063;-85
2022/05/03 12:35:39;;;;;;;5.63;4.72;;;22.10;99.90;;;;;;5076610;28;20040;-85
2022/05/03 12:38:24;;;;;;;6.05;4.68;;;21.70;99.90;;;;;;5087151;28;20031;-85
2022/05/03 12:40:55;;;;;;;6.25;4.40;;;21.50;99.90;;;;;;5087586;28;20024;-84
2022/05/03 12:43:29;;;;;;;4.75;3.67;;;21.70;99.70;;;;;;5091082;28;20060;-82
2022/05/03 12:46:05;;;;;;;4.65;3.63;;;21.70;99.90;;;;;;5095968;28;20052;-82
2022/05/03 12:48:33;;;;;;;4.88;3.33;;;22.00;99.90;;;;;;5081673;28;20093;-79
2022/05/03 12:51:00;;;;;;;3.97;3.55;;;22.50;99.90;;;;;;5080646;28;20059;-79
2022/05/03 12:53:30;;;;;;;5.40;4.32;;;23.10;99.90;;;;;;5079545;28;20067;-79
2022/05/03 12:58:21;;;;;;;5.57;3.60;;;23.50;98.70;;;;;;5077411;28;20448;-79
2022/05/03 12:58:44;;;;;;;4.78;3.90;;;23.90;98.90;;;;;;5081618;28;20416;-79
2022/05/03 13:01:11;;;;;;;4.25;3.60;;;24.00;98.60;;;;;;5080654;28;20063;-79
2022/05/03 13:03:40;;;;;;;4.90;4.10;;;23.70;97.40;;;;;;5075193;28;20349;-76
2022/05/03 13:06:06;;;;;;;6.47;4.43;;;23.90;97.00;;;;;;5072299;28;20028;-76
2022/05/03 13:08:33;;;;;;;6.25;4.50;;;23.80;96.80;;;;;;5064085;28;20035;-79
2022/05/03 13:10:58;;;;;;;4.97;3.72;;;23.60;95.60;;;;;;5077191;28;20047;-78
2022/05/03 13:13:24;;;;;;;6.03;4.78;;;23.60;95.50;;;;;;5074725;28;20381;-79
2022/05/03 13:15:50;;;;;;;6.00;4.38;;;23.60;94.90;;;;;;5076213;28;20150;-79
2022/05/03 13:18:16;;;;;;;4.35;3.95;;;23.60;95.60;;;;;;5082968;28;20043;-79
2022/05/03 13:20:43;;;;;;;6.72;4.65;;;23.50;96.00;;;;;;5081412;28;20048;-79
2022/05/03 13:23:10;;;;;;;3.92;3.53;;;23.80;94.30;;;;;;5082689;28;20817;-79
2022/05/03 13:25:35;;;;;;;8.07;4.00;;;23.90;95.10;;;;;;5080109;28;20031;-79
2022/05/03 13:28:01;;;;;;;5.70;4.30;;;24.10;93.80;;;;;;5083443;28;20032;-79
2022/05/03 13:30:26;;;;;;;4.85;2.75;;;24.40;93.10;;;;;;5084881;28;20404;-79
2022/05/03 13:32:53;;;;;;;4.50;2.80;;;24.40;94.20;;;;;;5081997;28;20032;-79
2022/05/03 13:40:28;;;;;;;4.43;3.60;;;24.50;91.60;;;;;;5083097;28;20079;-79
2022/05/03 13:40:48;;;;;;;3.70;2.75;;;24.60;91.40;;;;;;5082047;28;20124;-79
2022/05/03 13:43:14;;;;;;;3.70;2.70;;;24.70;91.60;;;;;;5086433;28;20102;-79
2022/05/03 13:45:40;;;;;;;4.60;2.92;;;24.60;91.40;;;;;;5094913;28;20091;-79
2022/05/03 13:48:05;;;;;;;4.68;3.10;;;24.20;92.70;;;;;;5090242;28;20477;-79
2022/05/03 13:50:31;;;;;;;4.32;2.97;;;23.90;92.00;;;;;;5092753;28;20036;-80